sensor_id;sensor_type;location;lat;lon;timestamp;P1;durP1;ratioP1;P2;durP2;ratioP2
15102;SDS011;7652;53.584;9.998;2023-05-10T00:00:38;3.03;;;2.83;;
15102;SDS011;7652;53.584;9.998;2023-05-10T00:04:00;2.40;;;2.30;;
15102;SDS011;7652;53.584;9.998;2023-05-10T00:07:21;6.57;;;2.60;;
15102;SDS011;7652;53.584;9.998;2023-05-10T00:10:43;3.97;;;2.20;;
15102;SDS011;7652;53.584;9.998;2023-05-10T00:14:04;4.77;;;2.40;;
15102;SDS011;7652;53.584;9.998;2023-05-10T00:17:27;6.30;;;2.70;;
15102;SDS011;7652;53.584;9.998;2023-05-10T00:20:49;3.77;;;2.40;;
15102;SDS011;7652;53.584;9.998;2023-05-10T00:24:10;2.97;;;2.60;;
15102;SDS011;7652;53.584;9.998;2023-05-10T00:27:32;4.57;;;2.50;;
15102;SDS011;7652;53.584;9.998;2023-05-10T00:30:54;3.73;;;2.53;;
15102;SDS011;7652;53.584;9.998;2023-05-10T00:34:16;3.23;;;2.90;;
15102;SDS011;7652;53.584;9.998;2023-05-10T00:37:37;4.20;;;2.83;;
15102;SDS011;7652;53.584;9.998;2023-05-10T00:40:59;3.00;;;2.70;;
15102;SDS011;7652;53.584;9.998;2023-05-10T00:44:20;2.73;;;2.50;;
15102;SDS011;7652;53.584;9.998;2023-05-10T00:47:41;4.23;;;2.80;;
15102;SDS011;7652;53.584;9.998;2023-05-10T00:51:04;3.37;;;2.67;;
15102;SDS011;7652;53.584;9.998;2023-05-10T00:54:26;3.57;;;2.57;;
15102;SDS011;7652;53.584;9.998;2023-05-10T00:57:47;3.50;;;2.60;;
15102;SDS011;7652;53.584;9.998;2023-05-10T01:01:09;3.10;;;2.80;;
15102;SDS011;7652;53.584;9.998;2023-05-10T01:04:31;2.90;;;2.60;;
15102;SDS011;7652;53.584;9.998;2023-05-10T01:07:55;3.07;;;2.80;;
15102;SDS011;7652;53.584;9.998;2023-05-10T01:11:17;5.30;;;2.80;;
15102;SDS011;7652;53.584;9.998;2023-05-10T01:14:39;2.87;;;2.67;;
15102;SDS011;7652;53.584;9.998;2023-05-10T01:18:01;3.97;;;2.77;;
15102;SDS011;7652;53.584;9.998;2023-05-10T01:21:25;5.70;;;2.90;;
15102;SDS011;7652;53.584;9.998;2023-05-10T01:25:09;3.73;;;2.70;;
15102;SDS011;7652;53.584;9.998;2023-05-10T01:28:42;4.63;;;2.90;;
15102;SDS011;7652;53.584;9.998;2023-05-10T01:32:26;2.77;;;2.57;;
15102;SDS011;7652;53.584;9.998;2023-05-10T01:35:54;4.70;;;2.80;;
15102;SDS011;7652;53.584;9.998;2023-05-10T01:39:32;5.40;;;2.93;;
15102;SDS011;7652;53.584;9.998;2023-05-10T01:43:03;3.37;;;3.07;;
15102;SDS011;7652;53.584;9.998;2023-05-10T01:46:31;4.20;;;2.83;;
15102;SDS011;7652;53.584;9.998;2023-05-10T01:49:59;2.90;;;2.60;;
15102;SDS011;7652;53.584;9.998;2023-05-10T01:53:23;5.07;;;2.70;;
15102;SDS011;7652;53.584;9.998;2023-05-10T01:56:45;2.60;;;2.40;;
15102;SDS011;7652;53.584;9.998;2023-05-10T02:00:13;3.00;;;2.70;;
15102;SDS011;7652;53.584;9.998;2023-05-10T02:03:36;4.47;;;2.90;;
15102;SDS011;7652;53.584;9.998;2023-05-10T02:07:02;3.10;;;2.73;;
15102;SDS011;7652;53.584;9.998;2023-05-10T02:10:24;5.27;;;2.67;;
15102;SDS011;7652;53.584;9.998;2023-05-10T02:13:48;5.07;;;2.73;;
15102;SDS011;7652;53.584;9.998;2023-05-10T02:17:10;5.67;;;3.00;;
15102;SDS011;7652;53.584;9.998;2023-05-10T02:20:33;4.00;;;3.27;;
15102;SDS011;7652;53.584;9.998;2023-05-10T02:23:57;7.07;;;2.77;;
15102;SDS011;7652;53.584;9.998;2023-05-10T02:27:20;4.70;;;2.97;;
15102;SDS011;7652;53.584;9.998;2023-05-10T02:30:42;6.23;;;3.10;;
15102;SDS011;7652;53.584;9.998;2023-05-10T02:34:05;4.17;;;2.73;;
15102;SDS011;7652;53.584;9.998;2023-05-10T02:37:29;4.33;;;3.20;;
15102;SDS011;7652;53.584;9.998;2023-05-10T02:40:52;3.67;;;3.10;;
15102;SDS011;7652;53.584;9.998;2023-05-10T02:44:16;2.80;;;2.60;;
15102;SDS011;7652;53.584;9.998;2023-05-10T02:47:40;3.33;;;2.90;;
15102;SDS011;7652;53.584;9.998;2023-05-10T02:51:03;4.03;;;2.83;;
15102;SDS011;7652;53.584;9.998;2023-05-10T02:54:28;3.23;;;2.70;;
15102;SDS011;7652;53.584;9.998;2023-05-10T02:58:04;4.70;;;3.10;;
15102;SDS011;7652;53.584;9.998;2023-05-10T03:01:26;5.10;;;3.27;;
15102;SDS011;7652;53.584;9.998;2023-05-10T03:04:47;4.70;;;3.13;;
15102;SDS011;7652;53.584;9.998;2023-05-10T03:08:08;4.13;;;2.50;;
15102;SDS011;7652;53.584;9.998;2023-05-10T03:11:37;3.97;;;2.80;;
15102;SDS011;7652;53.584;9.998;2023-05-10T03:15:12;4.40;;;3.03;;
15102;SDS011;7652;53.584;9.998;2023-05-10T03:18:41;3.57;;;3.27;;
15102;SDS011;7652;53.584;9.998;2023-05-10T03:22:04;4.43;;;2.70;;
15102;SDS011;7652;53.584;9.998;2023-05-10T03:25:31;3.60;;;2.67;;
15102;SDS011;7652;53.584;9.998;2023-05-10T03:28:53;4.17;;;2.60;;
15102;SDS011;7652;53.584;9.998;2023-05-10T03:32:17;3.73;;;3.33;;
15102;SDS011;7652;53.584;9.998;2023-05-10T03:35:39;3.03;;;2.80;;
15102;SDS011;7652;53.584;9.998;2023-05-10T03:39:01;4.87;;;3.37;;
15102;SDS011;7652;53.584;9.998;2023-05-10T03:42:22;4.77;;;3.40;;
15102;SDS011;7652;53.584;9.998;2023-05-10T03:45:44;4.97;;;3.30;;
15102;SDS011;7652;53.584;9.998;2023-05-10T03:49:07;3.33;;;3.03;;
15102;SDS011;7652;53.584;9.998;2023-05-10T03:52:29;4.07;;;3.00;;
15102;SDS011;7652;53.584;9.998;2023-05-10T03:55:51;4.50;;;2.87;;
15102;SDS011;7652;53.584;9.998;2023-05-10T03:59:12;3.77;;;3.13;;
15102;SDS011;7652;53.584;9.998;2023-05-10T04:02:34;4.73;;;3.10;;
15102;SDS011;7652;53.584;9.998;2023-05-10T04:06:00;3.60;;;3.30;;
15102;SDS011;7652;53.584;9.998;2023-05-10T04:09:22;3.27;;;2.97;;
15102;SDS011;7652;53.584;9.998;2023-05-10T04:12:43;5.90;;;3.10;;
15102;SDS011;7652;53.584;9.998;2023-05-10T04:16:05;8.03;;;3.70;;
15102;SDS011;7652;53.584;9.998;2023-05-10T04:19:28;5.60;;;3.20;;
15102;SDS011;7652;53.584;9.998;2023-05-10T04:22:52;4.23;;;3.10;;
15102;SDS011;7652;53.584;9.998;2023-05-10T04:26:14;3.10;;;2.80;;
15102;SDS011;7652;53.584;9.998;2023-05-10T04:29:35;3.97;;;3.23;;
15102;SDS011;7652;53.584;9.998;2023-05-10T04:32:58;3.53;;;3.10;;
15102;SDS011;7652;53.584;9.998;2023-05-10T04:36:19;4.27;;;3.30;;
15102;SDS011;7652;53.584;9.998;2023-05-10T04:39:42;4.17;;;3.20;;
15102;SDS011;7652;53.584;9.998;2023-05-10T04:43:03;3.90;;;3.00;;
15102;SDS011;7652;53.584;9.998;2023-05-10T04:46:25;5.37;;;3.53;;
15102;SDS011;7652;53.584;9.998;2023-05-10T04:49:46;6.73;;;3.20;;
15102;SDS011;7652;53.584;9.998;2023-05-10T04:53:08;4.20;;;3.10;;
15102;SDS011;7652;53.584;9.998;2023-05-10T04:56:30;4.93;;;2.90;;
15102;SDS011;7652;53.584;9.998;2023-05-10T04:59:52;6.70;;;3.17;;
15102;SDS011;7652;53.584;9.998;2023-05-10T05:03:13;6.53;;;4.47;;
15102;SDS011;7652;53.584;9.998;2023-05-10T05:06:35;3.83;;;2.90;;
15102;SDS011;7652;53.584;9.998;2023-05-10T05:09:56;3.13;;;2.87;;
15102;SDS011;7652;53.584;9.998;2023-05-10T05:13:19;4.03;;;3.00;;
15102;SDS011;7652;53.584;9.998;2023-05-10T05:16:40;5.33;;;3.30;;
15102;SDS011;7652;53.584;9.998;2023-05-10T05:20:02;4.47;;;3.23;;
15102;SDS011;7652;53.584;9.998;2023-05-10T05:23:24;6.13;;;3.43;;
15102;SDS011;7652;53.584;9.998;2023-05-10T05:26:45;3.80;;;3.43;;
15102;SDS011;7652;53.584;9.998;2023-05-10T05:30:08;4.23;;;3.80;;
15102;SDS011;7652;53.584;9.998;2023-05-10T05:33:31;3.63;;;3.23;;
15102;SDS011;7652;53.584;9.998;2023-05-10T05:36:52;5.60;;;3.07;;
15102;SDS011;7652;53.584;9.998;2023-05-10T05:40:13;3.40;;;3.10;;
15102;SDS011;7652;53.584;9.998;2023-05-10T05:43:34;3.63;;;3.10;;
15102;SDS011;7652;53.584;9.998;2023-05-10T05:46:58;3.07;;;2.80;;
15102;SDS011;7652;53.584;9.998;2023-05-10T05:50:20;3.47;;;3.20;;
15102;SDS011;7652;53.584;9.998;2023-05-10T05:53:41;5.83;;;3.20;;
15102;SDS011;7652;53.584;9.998;2023-05-10T05:57:02;5.43;;;3.30;;
15102;SDS011;7652;53.584;9.998;2023-05-10T06:00:24;5.97;;;3.80;;
15102;SDS011;7652;53.584;9.998;2023-05-10T06:03:47;3.90;;;3.60;;
15102;SDS011;7652;53.584;9.998;2023-05-10T06:07:11;4.93;;;3.30;;
15102;SDS011;7652;53.584;9.998;2023-05-10T06:10:33;3.43;;;3.13;;
15102;SDS011;7652;53.584;9.998;2023-05-10T06:13:54;6.57;;;3.60;;
15102;SDS011;7652;53.584;9.998;2023-05-10T06:17:15;4.77;;;3.00;;
15102;SDS011;7652;53.584;9.998;2023-05-10T06:20:38;4.77;;;3.13;;
15102;SDS011;7652;53.584;9.998;2023-05-10T06:24:01;5.03;;;2.90;;
15102;SDS011;7652;53.584;9.998;2023-05-10T06:27:23;6.23;;;3.47;;
15102;SDS011;7652;53.584;9.998;2023-05-10T06:30:44;3.83;;;3.00;;
15102;SDS011;7652;53.584;9.998;2023-05-10T06:34:06;3.43;;;3.13;;
15102;SDS011;7652;53.584;9.998;2023-05-10T06:37:29;3.10;;;2.80;;
15102;SDS011;7652;53.584;9.998;2023-05-10T06:40:51;5.93;;;3.23;;
15102;SDS011;7652;53.584;9.998;2023-05-10T06:44:12;4.73;;;3.13;;
15102;SDS011;7652;53.584;9.998;2023-05-10T06:47:34;3.50;;;3.10;;
15102;SDS011;7652;53.584;9.998;2023-05-10T06:50:58;3.70;;;3.27;;
15102;SDS011;7652;53.584;9.998;2023-05-10T06:54:20;3.20;;;2.90;;
15102;SDS011;7652;53.584;9.998;2023-05-10T06:57:42;3.63;;;3.30;;
15102;SDS011;7652;53.584;9.998;2023-05-10T07:01:04;4.07;;;3.20;;
15102;SDS011;7652;53.584;9.998;2023-05-10T07:04:26;6.27;;;3.80;;
15102;SDS011;7652;53.584;9.998;2023-05-10T07:07:48;7.13;;;3.70;;
15102;SDS011;7652;53.584;9.998;2023-05-10T07:11:11;7.20;;;3.87;;
15102;SDS011;7652;53.584;9.998;2023-05-10T07:14:32;3.53;;;3.23;;
15102;SDS011;7652;53.584;9.998;2023-05-10T07:17:54;4.87;;;3.47;;
15102;SDS011;7652;53.584;9.998;2023-05-10T07:21:15;6.60;;;3.10;;
15102;SDS011;7652;53.584;9.998;2023-05-10T07:24:37;5.03;;;3.37;;
15102;SDS011;7652;53.584;9.998;2023-05-10T07:28:00;7.23;;;4.00;;
15102;SDS011;7652;53.584;9.998;2023-05-10T07:31:21;3.63;;;3.30;;
15102;SDS011;7652;53.584;9.998;2023-05-10T07:34:43;4.07;;;3.10;;
15102;SDS011;7652;53.584;9.998;2023-05-10T07:38:04;5.80;;;3.50;;
15102;SDS011;7652;53.584;9.998;2023-05-10T07:41:26;4.77;;;3.70;;
15102;SDS011;7652;53.584;9.998;2023-05-10T07:44:49;3.87;;;3.03;;
15102;SDS011;7652;53.584;9.998;2023-05-10T07:48:10;3.83;;;3.37;;
15102;SDS011;7652;53.584;9.998;2023-05-10T07:51:32;3.37;;;3.07;;
15102;SDS011;7652;53.584;9.998;2023-05-10T07:54:53;3.50;;;3.20;;
15102;SDS011;7652;53.584;9.998;2023-05-10T07:58:16;7.23;;;3.70;;
15102;SDS011;7652;53.584;9.998;2023-05-10T08:01:39;5.67;;;3.30;;
15102;SDS011;7652;53.584;9.998;2023-05-10T08:05:01;3.40;;;3.10;;
15102;SDS011;7652;53.584;9.998;2023-05-10T08:08:22;4.33;;;3.17;;
15102;SDS011;7652;53.584;9.998;2023-05-10T08:11:44;4.40;;;3.30;;
15102;SDS011;7652;53.584;9.998;2023-05-10T08:15:05;6.80;;;3.70;;
15102;SDS011;7652;53.584;9.998;2023-05-10T08:18:29;4.20;;;3.53;;
15102;SDS011;7652;53.584;9.998;2023-05-10T08:21:50;3.60;;;3.30;;
15102;SDS011;7652;53.584;9.998;2023-05-10T08:25:13;5.40;;;3.20;;
15102;SDS011;7652;53.584;9.998;2023-05-10T08:28:34;4.87;;;3.40;;
15102;SDS011;7652;53.584;9.998;2023-05-10T08:31:55;4.00;;;3.37;;
15102;SDS011;7652;53.584;9.998;2023-05-10T08:35:18;5.83;;;3.70;;
15102;SDS011;7652;53.584;9.998;2023-05-10T08:38:39;3.90;;;3.60;;
15102;SDS011;7652;53.584;9.998;2023-05-10T08:42:01;3.80;;;3.50;;
15102;SDS011;7652;53.584;9.998;2023-05-10T08:45:25;4.80;;;3.43;;
15102;SDS011;7652;53.584;9.998;2023-05-10T08:48:52;4.40;;;3.63;;
15102;SDS011;7652;53.584;9.998;2023-05-10T08:52:17;4.93;;;3.20;;
15102;SDS011;7652;53.584;9.998;2023-05-10T08:55:39;6.53;;;3.43;;
15102;SDS011;7652;53.584;9.998;2023-05-10T08:59:02;6.80;;;3.63;;
15102;SDS011;7652;53.584;9.998;2023-05-10T09:02:24;6.97;;;3.90;;
15102;SDS011;7652;53.584;9.998;2023-05-10T09:05:46;5.60;;;3.80;;
15102;SDS011;7652;53.584;9.998;2023-05-10T09:09:10;5.50;;;3.73;;
15102;SDS011;7652;53.584;9.998;2023-05-10T09:12:32;3.97;;;3.53;;
15102;SDS011;7652;53.584;9.998;2023-05-10T09:15:54;4.57;;;3.70;;
15102;SDS011;7652;53.584;9.998;2023-05-10T09:19:21;4.10;;;3.77;;
15102;SDS011;7652;53.584;9.998;2023-05-10T09:22:42;3.87;;;3.57;;
15102;SDS011;7652;53.584;9.998;2023-05-10T09:26:05;5.73;;;3.80;;
15102;SDS011;7652;53.584;9.998;2023-05-10T09:29:28;5.63;;;3.80;;
15102;SDS011;7652;53.584;9.998;2023-05-10T09:33:00;3.83;;;3.53;;
15102;SDS011;7652;53.584;9.998;2023-05-10T09:36:22;4.60;;;3.77;;
15102;SDS011;7652;53.584;9.998;2023-05-10T09:39:44;6.00;;;3.80;;
15102;SDS011;7652;53.584;9.998;2023-05-10T09:43:07;5.77;;;3.60;;
15102;SDS011;7652;53.584;9.998;2023-05-10T09:46:32;4.53;;;4.10;;
15102;SDS011;7652;53.584;9.998;2023-05-10T09:49:57;10.73;;;4.30;;
15102;SDS011;7652;53.584;9.998;2023-05-10T09:53:22;4.53;;;4.10;;
15102;SDS011;7652;53.584;9.998;2023-05-10T09:56:44;4.83;;;4.43;;
15102;SDS011;7652;53.584;9.998;2023-05-10T10:00:07;5.07;;;4.07;;
15102;SDS011;7652;53.584;9.998;2023-05-10T10:03:30;6.70;;;4.30;;
15102;SDS011;7652;53.584;9.998;2023-05-10T10:06:59;8.73;;;4.70;;
15102;SDS011;7652;53.584;9.998;2023-05-10T10:10:22;6.60;;;5.00;;
15102;SDS011;7652;53.584;9.998;2023-05-10T10:13:44;5.57;;;4.93;;
15102;SDS011;7652;53.584;9.998;2023-05-10T10:17:07;5.53;;;4.90;;
15102;SDS011;7652;53.584;9.998;2023-05-10T10:20:29;6.30;;;5.00;;
15102;SDS011;7652;53.584;9.998;2023-05-10T10:23:50;6.60;;;5.53;;
15102;SDS011;7652;53.584;9.998;2023-05-10T10:27:15;5.90;;;5.00;;
15102;SDS011;7652;53.584;9.998;2023-05-10T10:30:45;6.87;;;6.13;;
15102;SDS011;7652;53.584;9.998;2023-05-10T10:34:16;7.20;;;5.30;;
15102;SDS011;7652;53.584;9.998;2023-05-10T10:37:46;6.87;;;5.70;;
15102;SDS011;7652;53.584;9.998;2023-05-10T10:41:09;6.77;;;5.80;;
15102;SDS011;7652;53.584;9.998;2023-05-10T10:44:36;7.70;;;6.20;;
15102;SDS011;7652;53.584;9.998;2023-05-10T10:48:19;8.30;;;6.27;;
15102;SDS011;7652;53.584;9.998;2023-05-10T10:52:12;6.70;;;6.10;;
15102;SDS011;7652;53.584;9.998;2023-05-10T10:55:48;6.50;;;5.90;;
15102;SDS011;7652;53.584;9.998;2023-05-10T10:59:09;7.67;;;6.20;;
15102;SDS011;7652;53.584;9.998;2023-05-10T11:02:34;7.33;;;6.50;;
15102;SDS011;7652;53.584;9.998;2023-05-10T11:06:05;6.80;;;5.67;;
15102;SDS011;7652;53.584;9.998;2023-05-10T11:09:29;6.77;;;6.10;;
15102;SDS011;7652;53.584;9.998;2023-05-10T11:13:00;7.40;;;6.00;;
15102;SDS011;7652;53.584;9.998;2023-05-10T11:16:23;6.70;;;6.00;;
15102;SDS011;7652;53.584;9.998;2023-05-10T11:23:28;9.20;;;6.30;;
15102;SDS011;7652;53.584;9.998;2023-05-10T11:26:52;7.07;;;6.30;;
15102;SDS011;7652;53.584;9.998;2023-05-10T11:30:14;6.70;;;6.00;;
15102;SDS011;7652;53.584;9.998;2023-05-10T11:33:42;6.63;;;6.10;;
15102;SDS011;7652;53.584;9.998;2023-05-10T11:37:04;7.93;;;5.97;;
15102;SDS011;7652;53.584;9.998;2023-05-10T11:40:25;7.33;;;6.63;;
15102;SDS011;7652;53.584;9.998;2023-05-10T11:43:49;7.40;;;6.70;;
15102;SDS011;7652;53.584;9.998;2023-05-10T11:47:11;9.40;;;7.47;;
15102;SDS011;7652;53.584;9.998;2023-05-10T11:50:33;9.00;;;6.97;;
15102;SDS011;7652;53.584;9.998;2023-05-10T11:53:55;7.67;;;6.73;;
15102;SDS011;7652;53.584;9.998;2023-05-10T11:57:18;8.10;;;7.30;;
15102;SDS011;7652;53.584;9.998;2023-05-10T12:00:41;13.33;;;7.73;;
15102;SDS011;7652;53.584;9.998;2023-05-10T12:04:02;7.73;;;7.00;;
15102;SDS011;7652;53.584;9.998;2023-05-10T12:07:25;7.97;;;7.17;;
15102;SDS011;7652;53.584;9.998;2023-05-10T12:10:47;7.97;;;7.03;;
15102;SDS011;7652;53.584;9.998;2023-05-10T12:14:08;8.53;;;7.73;;
15102;SDS011;7652;53.584;9.998;2023-05-10T12:17:31;7.17;;;6.53;;
15102;SDS011;7652;53.584;9.998;2023-05-10T12:20:53;8.07;;;7.27;;
15102;SDS011;7652;53.584;9.998;2023-05-10T12:24:15;9.03;;;8.13;;
15102;SDS011;7652;53.584;9.998;2023-05-10T12:27:37;8.03;;;7.17;;
15102;SDS011;7652;53.584;9.998;2023-05-10T12:30:59;9.03;;;6.97;;
15102;SDS011;7652;53.584;9.998;2023-05-10T12:34:30;7.60;;;6.87;;
15102;SDS011;7652;53.584;9.998;2023-05-10T12:37:52;8.20;;;7.50;;
15102;SDS011;7652;53.584;9.998;2023-05-10T12:41:14;7.47;;;6.77;;
15102;SDS011;7652;53.584;9.998;2023-05-10T12:44:37;8.00;;;6.90;;
15102;SDS011;7652;53.584;9.998;2023-05-10T12:47:59;6.90;;;6.30;;
15102;SDS011;7652;53.584;9.998;2023-05-10T12:51:21;7.83;;;6.33;;
15102;SDS011;7652;53.584;9.998;2023-05-10T12:54:43;8.10;;;7.30;;
15102;SDS011;7652;53.584;9.998;2023-05-10T12:58:04;8.67;;;7.23;;
15102;SDS011;7652;53.584;9.998;2023-05-10T13:01:25;8.83;;;6.10;;
15102;SDS011;7652;53.584;9.998;2023-05-10T13:04:47;7.87;;;6.90;;
15102;SDS011;7652;53.584;9.998;2023-05-10T13:08:11;6.40;;;5.80;;
15102;SDS011;7652;53.584;9.998;2023-05-10T13:11:32;6.47;;;5.83;;
15102;SDS011;7652;53.584;9.998;2023-05-10T13:14:53;6.43;;;5.83;;
15102;SDS011;7652;53.584;9.998;2023-05-10T13:18:15;5.33;;;4.83;;
15102;SDS011;7652;53.584;9.998;2023-05-10T13:21:36;5.63;;;5.13;;
15102;SDS011;7652;53.584;9.998;2023-05-10T13:24:59;5.67;;;5.10;;
15102;SDS011;7652;53.584;9.998;2023-05-10T13:28:21;7.13;;;5.47;;
15102;SDS011;7652;53.584;9.998;2023-05-10T13:31:42;6.07;;;5.50;;
15102;SDS011;7652;53.584;9.998;2023-05-10T13:35:04;6.10;;;5.53;;
15102;SDS011;7652;53.584;9.998;2023-05-10T13:38:26;5.57;;;5.07;;
15102;SDS011;7652;53.584;9.998;2023-05-10T13:41:49;5.97;;;5.47;;
15102;SDS011;7652;53.584;9.998;2023-05-10T13:45:12;5.10;;;4.50;;
15102;SDS011;7652;53.584;9.998;2023-05-10T13:48:34;4.63;;;4.17;;
15102;SDS011;7652;53.584;9.998;2023-05-10T13:51:58;4.57;;;4.27;;
15102;SDS011;7652;53.584;9.998;2023-05-10T13:55:21;6.13;;;5.63;;
15102;SDS011;7652;53.584;9.998;2023-05-10T13:58:44;6.63;;;5.93;;
15102;SDS011;7652;53.584;9.998;2023-05-10T14:02:06;7.27;;;6.57;;
15102;SDS011;7652;53.584;9.998;2023-05-10T14:05:27;6.77;;;6.17;;
15102;SDS011;7652;53.584;9.998;2023-05-10T14:08:49;7.27;;;6.67;;
15102;SDS011;7652;53.584;9.998;2023-05-10T14:12:11;6.93;;;6.27;;
15102;SDS011;7652;53.584;9.998;2023-05-10T14:15:35;6.10;;;5.57;;
15102;SDS011;7652;53.584;9.998;2023-05-10T14:18:57;6.67;;;6.07;;
15102;SDS011;7652;53.584;9.998;2023-05-10T14:22:19;6.30;;;5.70;;
15102;SDS011;7652;53.584;9.998;2023-05-10T14:25:40;5.57;;;5.07;;
15102;SDS011;7652;53.584;9.998;2023-05-10T14:29:02;5.70;;;5.20;;
15102;SDS011;7652;53.584;9.998;2023-05-10T14:32:24;5.63;;;5.13;;
15102;SDS011;7652;53.584;9.998;2023-05-10T14:35:47;5.77;;;5.13;;
15102;SDS011;7652;53.584;9.998;2023-05-10T14:39:09;5.17;;;4.77;;
15102;SDS011;7652;53.584;9.998;2023-05-10T14:42:32;5.33;;;4.87;;
15102;SDS011;7652;53.584;9.998;2023-05-10T14:45:54;6.00;;;5.50;;
15102;SDS011;7652;53.584;9.998;2023-05-10T14:49:16;5.33;;;4.83;;
15102;SDS011;7652;53.584;9.998;2023-05-10T14:52:38;5.63;;;5.23;;
15102;SDS011;7652;53.584;9.998;2023-05-10T14:55:59;5.87;;;5.37;;
15102;SDS011;7652;53.584;9.998;2023-05-10T14:59:21;5.73;;;5.23;;
15102;SDS011;7652;53.584;9.998;2023-05-10T15:02:42;5.57;;;5.13;;
15102;SDS011;7652;53.584;9.998;2023-05-10T15:06:07;5.77;;;5.27;;
15102;SDS011;7652;53.584;9.998;2023-05-10T15:09:28;5.67;;;5.27;;
15102;SDS011;7652;53.584;9.998;2023-05-10T15:12:50;6.60;;;6.00;;
15102;SDS011;7652;53.584;9.998;2023-05-10T15:16:11;5.20;;;4.70;;
15102;SDS011;7652;53.584;9.998;2023-05-10T15:19:32;4.90;;;4.50;;
15102;SDS011;7652;53.584;9.998;2023-05-10T15:22:55;6.00;;;5.40;;
15102;SDS011;7652;53.584;9.998;2023-05-10T15:26:17;5.93;;;5.40;;
15102;SDS011;7652;53.584;9.998;2023-05-10T15:29:38;4.93;;;4.53;;
15102;SDS011;7652;53.584;9.998;2023-05-10T15:33:00;5.10;;;4.70;;
15102;SDS011;7652;53.584;9.998;2023-05-10T15:36:22;6.30;;;5.50;;
15102;SDS011;7652;53.584;9.998;2023-05-10T15:39:45;4.97;;;4.47;;
15102;SDS011;7652;53.584;9.998;2023-05-10T15:43:06;6.10;;;5.43;;
15102;SDS011;7652;53.584;9.998;2023-05-10T15:46:28;4.37;;;3.97;;
15102;SDS011;7652;53.584;9.998;2023-05-10T15:49:50;4.93;;;4.53;;
15102;SDS011;7652;53.584;9.998;2023-05-10T15:53:11;4.30;;;3.90;;
15102;SDS011;7652;53.584;9.998;2023-05-10T15:56:35;4.80;;;3.97;;
15102;SDS011;7652;53.584;9.998;2023-05-10T15:59:57;4.27;;;3.97;;
15102;SDS011;7652;53.584;9.998;2023-05-10T16:03:18;4.43;;;4.13;;
15102;SDS011;7652;53.584;9.998;2023-05-10T16:06:40;4.30;;;4.00;;
15102;SDS011;7652;53.584;9.998;2023-05-10T16:10:01;4.30;;;4.00;;
15102;SDS011;7652;53.584;9.998;2023-05-10T16:13:27;5.40;;;4.90;;
15102;SDS011;7652;53.584;9.998;2023-05-10T16:16:48;8.10;;;6.73;;
15102;SDS011;7652;53.584;9.998;2023-05-10T16:20:10;7.13;;;6.53;;
15102;SDS011;7652;53.584;9.998;2023-05-10T16:23:32;11.47;;;6.87;;
15102;SDS011;7652;53.584;9.998;2023-05-10T16:26:53;4.00;;;3.63;;
15102;SDS011;7652;53.584;9.998;2023-05-10T16:30:15;5.20;;;4.70;;
15102;SDS011;7652;53.584;9.998;2023-05-10T16:33:37;6.13;;;4.70;;
15102;SDS011;7652;53.584;9.998;2023-05-10T16:36:58;6.57;;;5.90;;
15102;SDS011;7652;53.584;9.998;2023-05-10T16:40:20;6.87;;;5.53;;
15102;SDS011;7652;53.584;9.998;2023-05-10T16:43:42;5.40;;;4.67;;
15102;SDS011;7652;53.584;9.998;2023-05-10T16:47:05;5.97;;;4.97;;
15102;SDS011;7652;53.584;9.998;2023-05-10T16:50:27;5.83;;;4.77;;
15102;SDS011;7652;53.584;9.998;2023-05-10T16:53:48;5.80;;;5.30;;
15102;SDS011;7652;53.584;9.998;2023-05-10T16:57:09;6.23;;;5.63;;
15102;SDS011;7652;53.584;9.998;2023-05-10T17:00:31;7.03;;;6.37;;
15102;SDS011;7652;53.584;9.998;2023-05-10T17:03:54;5.93;;;5.43;;
15102;SDS011;7652;53.584;9.998;2023-05-10T17:07:15;5.20;;;4.80;;
15102;SDS011;7652;53.584;9.998;2023-05-10T17:10:38;5.73;;;5.10;;
15102;SDS011;7652;53.584;9.998;2023-05-10T17:13:59;4.97;;;4.20;;
15102;SDS011;7652;53.584;9.998;2023-05-10T17:17:21;3.70;;;3.40;;
15102;SDS011;7652;53.584;9.998;2023-05-10T17:20:45;4.20;;;3.80;;
15102;SDS011;7652;53.584;9.998;2023-05-10T17:24:06;4.93;;;3.97;;
15102;SDS011;7652;53.584;9.998;2023-05-10T17:27:28;5.13;;;4.50;;
15102;SDS011;7652;53.584;9.998;2023-05-10T17:30:54;4.70;;;4.37;;
15102;SDS011;7652;53.584;9.998;2023-05-10T17:34:16;6.00;;;5.13;;
15102;SDS011;7652;53.584;9.998;2023-05-10T17:37:39;5.73;;;5.23;;
15102;SDS011;7652;53.584;9.998;2023-05-10T17:41:01;4.80;;;4.33;;
15102;SDS011;7652;53.584;9.998;2023-05-10T17:44:22;4.40;;;4.10;;
15102;SDS011;7652;53.584;9.998;2023-05-10T17:47:44;5.80;;;5.30;;
15102;SDS011;7652;53.584;9.998;2023-05-10T17:51:06;6.60;;;6.00;;
15102;SDS011;7652;53.584;9.998;2023-05-10T17:54:28;6.00;;;5.50;;
15102;SDS011;7652;53.584;9.998;2023-05-10T17:57:50;5.87;;;5.37;;
15102;SDS011;7652;53.584;9.998;2023-05-10T18:01:11;5.50;;;5.00;;
15102;SDS011;7652;53.584;9.998;2023-05-10T18:04:32;5.57;;;5.17;;
15102;SDS011;7652;53.584;9.998;2023-05-10T18:07:54;5.70;;;5.20;;
15102;SDS011;7652;53.584;9.998;2023-05-10T18:11:17;5.93;;;5.37;;
15102;SDS011;7652;53.584;9.998;2023-05-10T18:14:39;6.07;;;5.57;;
15102;SDS011;7652;53.584;9.998;2023-05-10T18:18:00;5.90;;;5.40;;
15102;SDS011;7652;53.584;9.998;2023-05-10T18:21:23;6.60;;;6.00;;
15102;SDS011;7652;53.584;9.998;2023-05-10T18:24:44;6.50;;;5.90;;
15102;SDS011;7652;53.584;9.998;2023-05-10T18:28:08;5.93;;;5.43;;
15102;SDS011;7652;53.584;9.998;2023-05-10T18:31:29;5.80;;;5.30;;
15102;SDS011;7652;53.584;9.998;2023-05-10T18:34:51;5.60;;;5.10;;
15102;SDS011;7652;53.584;9.998;2023-05-10T18:38:14;5.57;;;5.07;;
15102;SDS011;7652;53.584;9.998;2023-05-10T18:41:37;5.60;;;5.03;;
15102;SDS011;7652;53.584;9.998;2023-05-10T18:45:00;5.67;;;5.17;;
15102;SDS011;7652;53.584;9.998;2023-05-10T18:48:22;6.43;;;5.17;;
15102;SDS011;7652;53.584;9.998;2023-05-10T18:51:43;8.23;;;5.53;;
15102;SDS011;7652;53.584;9.998;2023-05-10T18:55:06;6.73;;;6.03;;
15102;SDS011;7652;53.584;9.998;2023-05-10T18:58:28;6.40;;;5.77;;
15102;SDS011;7652;53.584;9.998;2023-05-10T19:01:51;6.27;;;5.67;;
15102;SDS011;7652;53.584;9.998;2023-05-10T19:05:16;5.60;;;5.10;;
15102;SDS011;7652;53.584;9.998;2023-05-10T19:08:38;6.57;;;5.77;;
15102;SDS011;7652;53.584;9.998;2023-05-10T19:11:59;7.40;;;5.63;;
15102;SDS011;7652;53.584;9.998;2023-05-10T19:15:21;6.13;;;5.07;;
15102;SDS011;7652;53.584;9.998;2023-05-10T19:18:44;5.97;;;5.03;;
15102;SDS011;7652;53.584;9.998;2023-05-10T19:22:06;4.97;;;4.47;;
15102;SDS011;7652;53.584;9.998;2023-05-10T19:25:29;5.20;;;4.70;;
15102;SDS011;7652;53.584;9.998;2023-05-10T19:28:53;4.87;;;4.37;;
15102;SDS011;7652;53.584;9.998;2023-05-10T19:32:16;4.17;;;3.77;;
15102;SDS011;7652;53.584;9.998;2023-05-10T19:35:39;5.87;;;4.80;;
15102;SDS011;7652;53.584;9.998;2023-05-10T19:39:00;4.70;;;4.07;;
15102;SDS011;7652;53.584;9.998;2023-05-10T19:42:22;5.17;;;4.50;;
15102;SDS011;7652;53.584;9.998;2023-05-10T19:45:43;4.27;;;3.87;;
15102;SDS011;7652;53.584;9.998;2023-05-10T19:49:05;4.60;;;4.20;;
15102;SDS011;7652;53.584;9.998;2023-05-10T19:52:28;4.20;;;3.90;;
15102;SDS011;7652;53.584;9.998;2023-05-10T19:55:49;4.13;;;3.83;;
15102;SDS011;7652;53.584;9.998;2023-05-10T19:59:11;4.53;;;4.13;;
15102;SDS011;7652;53.584;9.998;2023-05-10T20:02:32;4.77;;;4.37;;
15102;SDS011;7652;53.584;9.998;2023-05-10T20:05:54;4.93;;;4.53;;
15102;SDS011;7652;53.584;9.998;2023-05-10T20:09:17;5.10;;;4.70;;
15102;SDS011;7652;53.584;9.998;2023-05-10T20:12:38;4.90;;;4.50;;
15102;SDS011;7652;53.584;9.998;2023-05-10T20:16:00;4.97;;;4.57;;
15102;SDS011;7652;53.584;9.998;2023-05-10T20:19:23;4.90;;;4.60;;
15102;SDS011;7652;53.584;9.998;2023-05-10T20:22:44;5.20;;;4.87;;
15102;SDS011;7652;53.584;9.998;2023-05-10T20:26:08;5.40;;;5.00;;
15102;SDS011;7652;53.584;9.998;2023-05-10T20:29:29;5.27;;;4.87;;
15102;SDS011;7652;53.584;9.998;2023-05-10T20:32:51;5.80;;;5.37;;
15102;SDS011;7652;53.584;9.998;2023-05-10T20:36:12;5.23;;;4.83;;
15102;SDS011;7652;53.584;9.998;2023-05-10T20:39:35;5.77;;;5.17;;
15102;SDS011;7652;53.584;9.998;2023-05-10T20:42:57;5.43;;;5.03;;